sensor_id;sensor_type;location;lat;lon;timestamp;P1;durP1;ratioP1;P2;durP2;ratioP2
8675;SDS011;4375;52.486;13.424;2024-03-23T00:54:07;21.87;;;2.90;;
8675;SDS011;4375;52.486;13.424;2024-03-23T00:56:33;22.97;;;3.47;;
8675;SDS011;4375;52.486;13.424;2024-03-23T00:58:58;28.90;;;4.37;;
8675;SDS011;4375;52.486;13.424;2024-03-23T01:01:24;21.50;;;3.20;;
8675;SDS011;4375;52.486;13.424;2024-03-23T01:03:49;26.50;;;4.50;;
8675;SDS011;4375;52.486;13.424;2024-03-23T01:06:15;24.80;;;3.73;;
8675;SDS011;4375;52.486;13.424;2024-03-23T01:08:40;19.63;;;3.80;;
8675;SDS011;4375;52.486;13.424;2024-03-23T01:11:06;25.00;;;4.00;;
8675;SDS011;4375;52.486;13.424;2024-03-23T01:13:31;23.50;;;3.37;;
8675;SDS011;4375;52.486;13.424;2024-03-23T01:15:57;23.80;;;3.17;;
8675;SDS011;4375;52.486;13.424;2024-03-23T01:18:23;25.10;;;3.83;;
8675;SDS011;4375;52.486;13.424;2024-03-23T01:20:48;23.23;;;2.87;;
8675;SDS011;4375;52.486;13.424;2024-03-23T01:23:14;21.50;;;4.27;;
8675;SDS011;4375;52.486;13.424;2024-03-23T01:25:40;21.40;;;3.47;;
8675;SDS011;4375;52.486;13.424;2024-03-23T01:28:06;20.67;;;3.87;;
8675;SDS011;4375;52.486;13.424;2024-03-23T01:30:32;24.37;;;3.77;;
8675;SDS011;4375;52.486;13.424;2024-03-23T01:32:59;27.00;;;3.87;;
8675;SDS011;4375;52.486;13.424;2024-03-23T01:35:24;27.17;;;3.57;;
8675;SDS011;4375;52.486;13.424;2024-03-23T01:37:51;23.17;;;4.20;;
8675;SDS011;4375;52.486;13.424;2024-03-23T01:40:16;41.93;;;4.07;;
8675;SDS011;4375;52.486;13.424;2024-03-23T01:42:42;27.53;;;3.60;;
8675;SDS011;4375;52.486;13.424;2024-03-23T01:45:08;30.17;;;4.50;;
8675;SDS011;4375;52.486;13.424;2024-03-23T01:47:34;25.50;;;4.50;;
8675;SDS011;4375;52.486;13.424;2024-03-23T01:50:02;23.10;;;4.70;;
8675;SDS011;4375;52.486;13.424;2024-03-23T01:52:28;24.77;;;4.30;;
8675;SDS011;4375;52.486;13.424;2024-03-23T01:54:53;22.03;;;3.80;;
8675;SDS011;4375;52.486;13.424;2024-03-23T01:57:19;27.40;;;4.93;;
8675;SDS011;4375;52.486;13.424;2024-03-23T01:59:48;26.30;;;3.57;;
8675;SDS011;4375;52.486;13.424;2024-03-23T02:02:14;27.87;;;3.80;;
8675;SDS011;4375;52.486;13.424;2024-03-23T02:04:39;23.80;;;4.00;;
8675;SDS011;4375;52.486;13.424;2024-03-23T02:07:08;24.63;;;4.10;;
8675;SDS011;4375;52.486;13.424;2024-03-23T02:09:33;21.27;;;3.63;;
8675;SDS011;4375;52.486;13.424;2024-03-23T02:12:01;26.47;;;3.83;;
8675;SDS011;4375;52.486;13.424;2024-03-23T02:14:27;34.60;;;4.53;;
8675;SDS011;4375;52.486;13.424;2024-03-23T02:16:52;22.33;;;3.67;;
8675;SDS011;4375;52.486;13.424;2024-03-23T02:19:18;20.60;;;3.37;;
8675;SDS011;4375;52.486;13.424;2024-03-23T02:21:43;26.80;;;4.40;;
8675;SDS011;4375;52.486;13.424;2024-03-23T02:24:09;26.40;;;4.73;;
8675;SDS011;4375;52.486;13.424;2024-03-23T02:26:35;25.73;;;3.40;;
8675;SDS011;4375;52.486;13.424;2024-03-23T02:29:00;32.33;;;4.77;;
8675;SDS011;4375;52.486;13.424;2024-03-23T02:31:26;27.57;;;4.00;;
8675;SDS011;4375;52.486;13.424;2024-03-23T02:33:51;24.83;;;4.93;;
8675;SDS011;4375;52.486;13.424;2024-03-23T02:36:17;27.80;;;4.53;;
8675;SDS011;4375;52.486;13.424;2024-03-23T02:38:42;21.10;;;3.83;;
8675;SDS011;4375;52.486;13.424;2024-03-23T02:41:08;25.23;;;3.70;;
8675;SDS011;4375;52.486;13.424;2024-03-23T02:43:33;25.30;;;3.87;;
8675;SDS011;4375;52.486;13.424;2024-03-23T02:45:59;26.63;;;3.77;;
8675;SDS011;4375;52.486;13.424;2024-03-23T02:48:25;32.73;;;4.37;;
8675;SDS011;4375;52.486;13.424;2024-03-23T02:50:51;22.43;;;4.10;;
8675;SDS011;4375;52.486;13.424;2024-03-23T02:53:17;27.13;;;4.00;;
8675;SDS011;4375;52.486;13.424;2024-03-23T02:55:42;29.30;;;4.10;;
8675;SDS011;4375;52.486;13.424;2024-03-23T02:58:08;24.23;;;4.00;;
8675;SDS011;4375;52.486;13.424;2024-03-23T03:00:33;24.03;;;3.93;;
8675;SDS011;4375;52.486;13.424;2024-03-23T03:02:59;22.20;;;4.10;;
8675;SDS011;4375;52.486;13.424;2024-03-23T03:05:24;24.53;;;4.33;;
8675;SDS011;4375;52.486;13.424;2024-03-23T03:07:50;32.90;;;4.87;;
8675;SDS011;4375;52.486;13.424;2024-03-23T03:10:15;25.50;;;4.07;;
8675;SDS011;4375;52.486;13.424;2024-03-23T03:12:41;27.27;;;4.97;;
8675;SDS011;4375;52.486;13.424;2024-03-23T03:15:07;21.60;;;3.90;;
8675;SDS011;4375;52.486;13.424;2024-03-23T03:17:34;22.50;;;3.57;;
8675;SDS011;4375;52.486;13.424;2024-03-23T03:20:00;29.00;;;5.10;;
8675;SDS011;4375;52.486;13.424;2024-03-23T03:22:25;26.47;;;4.30;;
8675;SDS011;4375;52.486;13.424;2024-03-23T03:24:51;26.07;;;4.90;;
8675;SDS011;4375;52.486;13.424;2024-03-23T03:27:16;22.47;;;4.53;;
8675;SDS011;4375;52.486;13.424;2024-03-23T03:29:42;22.00;;;3.87;;
8675;SDS011;4375;52.486;13.424;2024-03-23T03:32:07;31.30;;;4.47;;
8675;SDS011;4375;52.486;13.424;2024-03-23T03:34:33;26.53;;;4.30;;
8675;SDS011;4375;52.486;13.424;2024-03-23T03:36:59;21.07;;;4.50;;
8675;SDS011;4375;52.486;13.424;2024-03-23T03:39:25;25.33;;;3.77;;
8675;SDS011;4375;52.486;13.424;2024-03-23T03:41:51;25.17;;;4.57;;
8675;SDS011;4375;52.486;13.424;2024-03-23T03:44:17;28.80;;;4.80;;
8675;SDS011;4375;52.486;13.424;2024-03-23T03:46:42;27.27;;;4.50;;
8675;SDS011;4375;52.486;13.424;2024-03-23T03:49:08;21.43;;;4.07;;
8675;SDS011;4375;52.486;13.424;2024-03-23T03:51:34;27.30;;;4.60;;
8675;SDS011;4375;52.486;13.424;2024-03-23T03:53:59;22.97;;;3.57;;
8675;SDS011;4375;52.486;13.424;2024-03-23T03:56:25;24.90;;;4.87;;
8675;SDS011;4375;52.486;13.424;2024-03-23T03:58:52;25.00;;;3.47;;
8675;SDS011;4375;52.486;13.424;2024-03-23T04:01:17;23.90;;;4.47;;
8675;SDS011;4375;52.486;13.424;2024-03-23T04:03:43;21.57;;;3.70;;
8675;SDS011;4375;52.486;13.424;2024-03-23T04:06:09;25.90;;;4.40;;
8675;SDS011;4375;52.486;13.424;2024-03-23T04:08:35;22.50;;;4.23;;
8675;SDS011;4375;52.486;13.424;2024-03-23T04:11:00;22.50;;;4.17;;
8675;SDS011;4375;52.486;13.424;2024-03-23T04:13:26;31.37;;;4.17;;
8675;SDS011;4375;52.486;13.424;2024-03-23T04:15:55;27.37;;;5.00;;
8675;SDS011;4375;52.486;13.424;2024-03-23T04:18:21;24.13;;;4.03;;
8675;SDS011;4375;52.486;13.424;2024-03-23T04:20:51;27.87;;;4.67;;
8675;SDS011;4375;52.486;13.424;2024-03-23T04:23:16;19.47;;;4.17;;
8675;SDS011;4375;52.486;13.424;2024-03-23T04:25:42;23.23;;;3.70;;
8675;SDS011;4375;52.486;13.424;2024-03-23T04:28:08;21.30;;;3.47;;
8675;SDS011;4375;52.486;13.424;2024-03-23T04:30:33;24.70;;;4.03;;
8675;SDS011;4375;52.486;13.424;2024-03-23T04:32:59;26.10;;;3.10;;
8675;SDS011;4375;52.486;13.424;2024-03-23T04:35:25;20.33;;;3.20;;
8675;SDS011;4375;52.486;13.424;2024-03-23T04:37:51;21.47;;;3.10;;
8675;SDS011;4375;52.486;13.424;2024-03-23T04:40:17;21.00;;;2.70;;
8675;SDS011;4375;52.486;13.424;2024-03-23T04:42:43;18.17;;;3.10;;
8675;SDS011;4375;52.486;13.424;2024-03-23T04:45:09;20.33;;;2.63;;
8675;SDS011;4375;52.486;13.424;2024-03-23T04:47:35;16.07;;;2.60;;
8675;SDS011;4375;52.486;13.424;2024-03-23T04:50:02;16.93;;;2.53;;
8675;SDS011;4375;52.486;13.424;2024-03-23T04:52:28;18.67;;;2.17;;
8675;SDS011;4375;52.486;13.424;2024-03-23T04:54:54;18.70;;;2.10;;
8675;SDS011;4375;52.486;13.424;2024-03-23T04:57:20;18.73;;;2.33;;
8675;SDS011;4375;52.486;13.424;2024-03-23T04:59:45;20.97;;;2.30;;
8675;SDS011;4375;52.486;13.424;2024-03-23T05:02:12;18.77;;;2.00;;
8675;SDS011;4375;52.486;13.424;2024-03-23T05:04:38;18.00;;;2.20;;
8675;SDS011;4375;52.486;13.424;2024-03-23T05:07:03;19.30;;;2.40;;
8675;SDS011;4375;52.486;13.424;2024-03-23T05:09:29;16.40;;;2.47;;
8675;SDS011;4375;52.486;13.424;2024-03-23T05:11:55;17.97;;;2.20;;
8675;SDS011;4375;52.486;13.424;2024-03-23T05:14:21;18.83;;;3.67;;
8675;SDS011;4375;52.486;13.424;2024-03-23T05:16:47;17.77;;;2.10;;
8675;SDS011;4375;52.486;13.424;2024-03-23T05:19:13;17.63;;;2.20;;
8675;SDS011;4375;52.486;13.424;2024-03-23T05:21:38;21.40;;;2.97;;
8675;SDS011;4375;52.486;13.424;2024-03-23T05:24:13;15.93;;;1.90;;
8675;SDS011;4375;52.486;13.424;2024-03-23T05:26:39;14.40;;;1.93;;
8675;SDS011;4375;52.486;13.424;2024-03-23T05:29:04;17.00;;;2.47;;
8675;SDS011;4375;52.486;13.424;2024-03-23T05:31:32;20.80;;;2.57;;
8675;SDS011;4375;52.486;13.424;2024-03-23T05:33:57;20.57;;;2.23;;
8675;SDS011;4375;52.486;13.424;2024-03-23T05:36:23;15.37;;;1.90;;
8675;SDS011;4375;52.486;13.424;2024-03-23T05:38:51;22.00;;;2.70;;
8675;SDS011;4375;52.486;13.424;2024-03-23T05:41:17;21.03;;;2.90;;
8675;SDS011;4375;52.486;13.424;2024-03-23T05:43:42;22.23;;;3.70;;
8675;SDS011;4375;52.486;13.424;2024-03-23T05:46:08;18.63;;;2.33;;
8675;SDS011;4375;52.486;13.424;2024-03-23T05:48:34;24.37;;;3.50;;
8675;SDS011;4375;52.486;13.424;2024-03-23T05:50:59;20.97;;;3.13;;
8675;SDS011;4375;52.486;13.424;2024-03-23T05:53:25;16.87;;;2.67;;
8675;SDS011;4375;52.486;13.424;2024-03-23T05:55:51;18.50;;;2.97;;
8675;SDS011;4375;52.486;13.424;2024-03-23T05:58:25;18.20;;;2.60;;
8675;SDS011;4375;52.486;13.424;2024-03-23T06:00:56;31.17;;;3.17;;
8675;SDS011;4375;52.486;13.424;2024-03-23T06:03:26;17.90;;;3.40;;
8675;SDS011;4375;52.486;13.424;2024-03-23T06:05:52;17.53;;;2.60;;
8675;SDS011;4375;52.486;13.424;2024-03-23T06:08:21;22.97;;;3.40;;
8675;SDS011;4375;52.486;13.424;2024-03-23T06:10:47;16.80;;;3.10;;
8675;SDS011;4375;52.486;13.424;2024-03-23T06:13:12;23.87;;;3.60;;
8675;SDS011;4375;52.486;13.424;2024-03-23T06:15:38;18.70;;;3.87;;
8675;SDS011;4375;52.486;13.424;2024-03-23T06:18:04;24.27;;;3.83;;
8675;SDS011;4375;52.486;13.424;2024-03-23T06:20:30;22.10;;;3.50;;
8675;SDS011;4375;52.486;13.424;2024-03-23T06:22:56;22.80;;;4.40;;
8675;SDS011;4375;52.486;13.424;2024-03-23T06:25:22;21.80;;;3.70;;
8675;SDS011;4375;52.486;13.424;2024-03-23T06:27:47;20.27;;;3.60;;
8675;SDS011;4375;52.486;13.424;2024-03-23T06:30:13;17.97;;;3.33;;
8675;SDS011;4375;52.486;13.424;2024-03-23T06:32:39;18.70;;;3.20;;
8675;SDS011;4375;52.486;13.424;2024-03-23T06:35:04;25.03;;;3.80;;
8675;SDS011;4375;52.486;13.424;2024-03-23T06:37:33;18.13;;;3.23;;
8675;SDS011;4375;52.486;13.424;2024-03-23T06:39:59;19.40;;;3.13;;
8675;SDS011;4375;52.486;13.424;2024-03-23T06:42:25;21.83;;;3.43;;
8675;SDS011;4375;52.486;13.424;2024-03-23T06:44:50;18.43;;;2.63;;
8675;SDS011;4375;52.486;13.424;2024-03-23T06:47:16;22.80;;;3.33;;
8675;SDS011;4375;52.486;13.424;2024-03-23T06:49:41;18.17;;;2.13;;
8675;SDS011;4375;52.486;13.424;2024-03-23T06:52:07;16.40;;;2.60;;
8675;SDS011;4375;52.486;13.424;2024-03-23T06:54:33;18.30;;;3.10;;
8675;SDS011;4375;52.486;13.424;2024-03-23T06:56:59;21.83;;;2.57;;
8675;SDS011;4375;52.486;13.424;2024-03-23T06:59:24;15.20;;;2.40;;
8675;SDS011;4375;52.486;13.424;2024-03-23T07:01:50;18.47;;;2.90;;
8675;SDS011;4375;52.486;13.424;2024-03-23T07:04:15;17.00;;;2.23;;
8675;SDS011;4375;52.486;13.424;2024-03-23T07:06:44;18.23;;;2.47;;
8675;SDS011;4375;52.486;13.424;2024-03-23T07:09:10;19.00;;;3.13;;
8675;SDS011;4375;52.486;13.424;2024-03-23T07:11:36;17.30;;;2.50;;
8675;SDS011;4375;52.486;13.424;2024-03-23T07:14:01;22.13;;;2.60;;
8675;SDS011;4375;52.486;13.424;2024-03-23T07:16:30;16.07;;;2.27;;
8675;SDS011;4375;52.486;13.424;2024-03-23T07:18:56;24.43;;;3.20;;
8675;SDS011;4375;52.486;13.424;2024-03-23T07:21:21;18.60;;;2.70;;
8675;SDS011;4375;52.486;13.424;2024-03-23T07:23:50;19.87;;;3.10;;
8675;SDS011;4375;52.486;13.424;2024-03-23T07:26:15;16.70;;;2.77;;
8675;SDS011;4375;52.486;13.424;2024-03-23T07:28:42;16.40;;;2.60;;
8675;SDS011;4375;52.486;13.424;2024-03-23T07:31:10;18.23;;;2.70;;
8675;SDS011;4375;52.486;13.424;2024-03-23T07:33:38;21.63;;;3.00;;
8675;SDS011;4375;52.486;13.424;2024-03-23T07:36:07;24.53;;;2.77;;
8675;SDS011;4375;52.486;13.424;2024-03-23T07:38:33;17.20;;;2.63;;
8675;SDS011;4375;52.486;13.424;2024-03-23T07:41:08;18.13;;;3.20;;
8675;SDS011;4375;52.486;13.424;2024-03-23T07:43:36;19.13;;;3.33;;
8675;SDS011;4375;52.486;13.424;2024-03-23T07:46:05;21.00;;;3.37;;
8675;SDS011;4375;52.486;13.424;2024-03-23T07:48:31;16.83;;;2.40;;
8675;SDS011;4375;52.486;13.424;2024-03-23T07:51:01;20.07;;;2.87;;
8675;SDS011;4375;52.486;13.424;2024-03-23T07:53:35;18.40;;;3.10;;
8675;SDS011;4375;52.486;13.424;2024-03-23T07:56:02;17.93;;;2.60;;
8675;SDS011;4375;52.486;13.424;2024-03-23T07:58:33;17.43;;;2.50;;
8675;SDS011;4375;52.486;13.424;2024-03-23T08:01:06;17.23;;;2.53;;
8675;SDS011;4375;52.486;13.424;2024-03-23T08:03:35;16.60;;;3.10;;
8675;SDS011;4375;52.486;13.424;2024-03-23T08:08:35;22.90;;;2.87;;
8675;SDS011;4375;52.486;13.424;2024-03-23T08:11:00;15.87;;;2.40;;
8675;SDS011;4375;52.486;13.424;2024-03-23T08:13:27;18.90;;;2.60;;
8675;SDS011;4375;52.486;13.424;2024-03-23T08:15:56;15.40;;;2.50;;
8675;SDS011;4375;52.486;13.424;2024-03-23T08:18:25;23.63;;;3.50;;
8675;SDS011;4375;52.486;13.424;2024-03-23T08:21:01;20.07;;;3.83;;
8675;SDS011;4375;52.486;13.424;2024-03-23T08:23:31;21.03;;;3.47;;
8675;SDS011;4375;52.486;13.424;2024-03-23T08:26:04;18.00;;;2.77;;
8675;SDS011;4375;52.486;13.424;2024-03-23T08:28:33;15.90;;;2.47;;
8675;SDS011;4375;52.486;13.424;2024-03-23T08:31:10;20.00;;;2.70;;
8675;SDS011;4375;52.486;13.424;2024-03-23T08:33:37;20.67;;;3.30;;
8675;SDS011;4375;52.486;13.424;2024-03-23T08:36:07;18.23;;;2.30;;
8675;SDS011;4375;52.486;13.424;2024-03-23T08:38:33;21.03;;;2.77;;
8675;SDS011;4375;52.486;13.424;2024-03-23T08:41:00;15.50;;;2.40;;
8675;SDS011;4375;52.486;13.424;2024-03-23T08:43:27;16.10;;;2.47;;
8675;SDS011;4375;52.486;13.424;2024-03-23T08:48:44;17.37;;;2.67;;
8675;SDS011;4375;52.486;13.424;2024-03-23T08:51:14;22.30;;;3.43;;
8675;SDS011;4375;52.486;13.424;2024-03-23T08:53:41;19.43;;;3.20;;
8675;SDS011;4375;52.486;13.424;2024-03-23T08:56:10;18.43;;;3.30;;
8675;SDS011;4375;52.486;13.424;2024-03-23T08:58:37;17.20;;;3.13;;
8675;SDS011;4375;52.486;13.424;2024-03-23T09:01:05;18.00;;;2.70;;
8675;SDS011;4375;52.486;13.424;2024-03-23T09:03:38;17.10;;;3.00;;
8675;SDS011;4375;52.486;13.424;2024-03-23T09:06:07;18.63;;;2.00;;
8675;SDS011;4375;52.486;13.424;2024-03-23T09:08:33;19.20;;;2.73;;
8675;SDS011;4375;52.486;13.424;2024-03-23T09:11:03;18.30;;;2.70;;
8675;SDS011;4375;52.486;13.424;2024-03-23T09:13:31;18.27;;;2.60;;
8675;SDS011;4375;52.486;13.424;2024-03-23T09:16:00;16.00;;;2.90;;
8675;SDS011;4375;52.486;13.424;2024-03-23T09:18:25;18.03;;;2.33;;
8675;SDS011;4375;52.486;13.424;2024-03-23T09:20:51;15.40;;;2.10;;
8675;SDS011;4375;52.486;13.424;2024-03-23T09:23:18;14.20;;;1.60;;
8675;SDS011;4375;52.486;13.424;2024-03-23T09:25:44;16.60;;;2.50;;
8675;SDS011;4375;52.486;13.424;2024-03-23T09:28:09;15.80;;;2.40;;
8675;SDS011;4375;52.486;13.424;2024-03-23T09:30:35;15.33;;;2.37;;
8675;SDS011;4375;52.486;13.424;2024-03-23T09:33:07;17.47;;;1.87;;
8675;SDS011;4375;52.486;13.424;2024-03-23T09:35:36;14.63;;;1.77;;
8675;SDS011;4375;52.486;13.424;2024-03-23T09:38:06;20.43;;;2.00;;
8675;SDS011;4375;52.486;13.424;2024-03-23T09:40:35;16.87;;;2.07;;
8675;SDS011;4375;52.486;13.424;2024-03-23T09:43:12;16.00;;;1.77;;
8675;SDS011;4375;52.486;13.424;2024-03-23T09:45:40;20.97;;;2.60;;
8675;SDS011;4375;52.486;13.424;2024-03-23T09:48:08;21.50;;;2.40;;
8675;SDS011;4375;52.486;13.424;2024-03-23T09:50:40;16.50;;;3.23;;
8675;SDS011;4375;52.486;13.424;2024-03-23T09:53:09;20.20;;;2.27;;
8675;SDS011;4375;52.486;13.424;2024-03-23T09:55:36;22.00;;;3.43;;
8675;SDS011;4375;52.486;13.424;2024-03-23T09:58:03;14.80;;;2.00;;
8675;SDS011;4375;52.486;13.424;2024-03-23T10:00:30;19.40;;;2.33;;
8675;SDS011;4375;52.486;13.424;2024-03-23T10:02:56;18.17;;;2.27;;
8675;SDS011;4375;52.486;13.424;2024-03-23T10:05:26;18.50;;;2.47;;
8675;SDS011;4375;52.486;13.424;2024-03-23T10:07:52;17.90;;;3.07;;
8675;SDS011;4375;52.486;13.424;2024-03-23T10:10:18;17.93;;;2.27;;
8675;SDS011;4375;52.486;13.424;2024-03-23T10:12:45;24.97;;;3.00;;
8675;SDS011;4375;52.486;13.424;2024-03-23T10:15:23;21.60;;;3.40;;
8675;SDS011;4375;52.486;13.424;2024-03-23T10:17:50;18.80;;;2.17;;
8675;SDS011;4375;52.486;13.424;2024-03-23T10:20:19;19.63;;;2.43;;
8675;SDS011;4375;52.486;13.424;2024-03-23T10:22:49;15.33;;;2.27;;
8675;SDS011;4375;52.486;13.424;2024-03-23T10:25:16;18.43;;;2.60;;
8675;SDS011;4375;52.486;13.424;2024-03-23T10:27:42;17.67;;;2.43;;
8675;SDS011;4375;52.486;13.424;2024-03-23T10:30:12;18.37;;;2.47;;
8675;SDS011;4375;52.486;13.424;2024-03-23T10:32:41;19.83;;;2.40;;
8675;SDS011;4375;52.486;13.424;2024-03-23T10:35:14;16.67;;;2.20;;
8675;SDS011;4375;52.486;13.424;2024-03-23T10:37:49;17.03;;;2.33;;
8675;SDS011;4375;52.486;13.424;2024-03-23T10:40:16;17.13;;;2.97;;
8675;SDS011;4375;52.486;13.424;2024-03-23T10:42:43;17.60;;;2.73;;
8675;SDS011;4375;52.486;13.424;2024-03-23T10:45:12;16.93;;;2.40;;
8675;SDS011;4375;52.486;13.424;2024-03-23T10:47:38;18.10;;;2.83;;
8675;SDS011;4375;52.486;13.424;2024-03-23T10:50:03;22.00;;;3.10;;
8675;SDS011;4375;52.486;13.424;2024-03-23T10:52:31;22.10;;;3.50;;
8675;SDS011;4375;52.486;13.424;2024-03-23T10:54:57;18.20;;;2.60;;
8675;SDS011;4375;52.486;13.424;2024-03-23T11:00:23;16.93;;;2.93;;
8675;SDS011;4375;52.486;13.424;2024-03-23T11:02:52;24.10;;;3.47;;
8675;SDS011;4375;52.486;13.424;2024-03-23T11:07:49;16.70;;;2.60;;
8675;SDS011;4375;52.486;13.424;2024-03-23T11:10:29;19.30;;;3.20;;
8675;SDS011;4375;52.486;13.424;2024-03-23T11:13:22;17.40;;;2.57;;
8675;SDS011;4375;52.486;13.424;2024-03-23T11:15:47;16.67;;;2.53;;
8675;SDS011;4375;52.486;13.424;2024-03-23T11:18:12;18.47;;;3.00;;
8675;SDS011;4375;52.486;13.424;2024-03-23T11:20:46;19.33;;;2.63;;
8675;SDS011;4375;52.486;13.424;2024-03-23T11:23:26;20.13;;;2.70;;
8675;SDS011;4375;52.486;13.424;2024-03-23T11:25:52;25.43;;;2.53;;
8675;SDS011;4375;52.486;13.424;2024-03-23T11:28:18;19.30;;;2.07;;
8675;SDS011;4375;52.486;13.424;2024-03-23T11:30:43;15.50;;;2.43;;
8675;SDS011;4375;52.486;13.424;2024-03-23T11:33:09;21.20;;;2.97;;
8675;SDS011;4375;52.486;13.424;2024-03-23T11:35:38;19.43;;;2.70;;
8675;SDS011;4375;52.486;13.424;2024-03-23T11:38:05;16.53;;;2.20;;
8675;SDS011;4375;52.486;13.424;2024-03-23T11:40:37;19.87;;;2.47;;
8675;SDS011;4375;52.486;13.424;2024-03-23T11:43:04;20.07;;;2.50;;
8675;SDS011;4375;52.486;13.424;2024-03-23T11:45:38;20.43;;;3.70;;
8675;SDS011;4375;52.486;13.424;2024-03-23T11:48:08;24.20;;;2.60;;
8675;SDS011;4375;52.486;13.424;2024-03-23T11:50:38;20.83;;;3.50;;
8675;SDS011;4375;52.486;13.424;2024-03-23T11:53:21;18.23;;;2.40;;
8675;SDS011;4375;52.486;13.424;2024-03-23T11:58:18;16.07;;;2.30;;
8675;SDS011;4375;52.486;13.424;2024-03-23T12:03:30;16.93;;;2.20;;
8675;SDS011;4375;52.486;13.424;2024-03-23T12:06:00;16.10;;;2.03;;
8675;SDS011;4375;52.486;13.424;2024-03-23T12:08:31;18.00;;;2.20;;
8675;SDS011;4375;52.486;13.424;2024-03-23T12:11:31;22.03;;;2.73;;
8675;SDS011;4375;52.486;13.424;2024-03-23T12:13:51;21.70;;;2.87;;
8675;SDS011;4375;52.486;13.424;2024-03-23T12:16:17;18.87;;;3.00;;
8675;SDS011;4375;52.486;13.424;2024-03-23T12:18:47;18.90;;;2.70;;
8675;SDS011;4375;52.486;13.424;2024-03-23T12:21:16;18.23;;;3.10;;
8675;SDS011;4375;52.486;13.424;2024-03-23T12:23:42;19.27;;;2.60;;
8675;SDS011;4375;52.486;13.424;2024-03-23T12:26:10;16.50;;;2.50;;
8675;SDS011;4375;52.486;13.424;2024-03-23T12:28:36;15.83;;;2.17;;
8675;SDS011;4375;52.486;13.424;2024-03-23T12:31:02;16.70;;;2.30;;
8675;SDS011;4375;52.486;13.424;2024-03-23T12:33:28;17.20;;;2.37;;
8675;SDS011;4375;52.486;13.424;2024-03-23T12:35:53;15.93;;;2.30;;
8675;SDS011;4375;52.486;13.424;2024-03-23T12:38:19;21.13;;;2.80;;
8675;SDS011;4375;52.486;13.424;2024-03-23T12:40:48;18.60;;;2.80;;
8675;SDS011;4375;52.486;13.424;2024-03-23T12:43:17;20.33;;;2.10;;
8675;SDS011;4375;52.486;13.424;2024-03-23T12:45:49;17.87;;;2.27;;
8675;SDS011;4375;52.486;13.424;2024-03-23T12:48:15;18.27;;;2.60;;
8675;SDS011;4375;52.486;13.424;2024-03-23T12:50:41;18.73;;;2.70;;
8675;SDS011;4375;52.486;13.424;2024-03-23T12:53:07;16.33;;;2.00;;
8675;SDS011;4375;52.486;13.424;2024-03-23T12:55:34;16.93;;;2.37;;
8675;SDS011;4375;52.486;13.424;2024-03-23T12:58:00;14.20;;;2.33;;
8675;SDS011;4375;52.486;13.424;2024-03-23T13:00:26;15.30;;;1.73;;
8675;SDS011;4375;52.486;13.424;2024-03-23T13:02:51;18.37;;;1.83;;
8675;SDS011;4375;52.486;13.424;2024-03-23T13:05:17;15.87;;;1.73;;
8675;SDS011;4375;52.486;13.424;2024-03-23T13:07:43;16.10;;;1.50;;
8675;SDS011;4375;52.486;13.424;2024-03-23T13:10:08;15.60;;;1.70;;
8675;SDS011;4375;52.486;13.424;2024-03-23T13:12:34;15.10;;;1.60;;
8675;SDS011;4375;52.486;13.424;2024-03-23T13:15:00;15.53;;;1.73;;
8675;SDS011;4375;52.486;13.424;2024-03-23T13:17:26;18.27;;;2.47;;
8675;SDS011;4375;52.486;13.424;2024-03-23T13:19:52;18.53;;;2.00;;
8675;SDS011;4375;52.486;13.424;2024-03-23T13:22:18;19.37;;;2.30;;
8675;SDS011;4375;52.486;13.424;2024-03-23T13:24:44;20.10;;;2.27;;
8675;SDS011;4375;52.486;13.424;2024-03-23T13:27:09;19.47;;;2.97;;
8675;SDS011;4375;52.486;13.424;2024-03-23T13:29:35;17.47;;;2.13;;
8675;SDS011;4375;52.486;13.424;2024-03-23T13:32:02;20.43;;;2.33;;
8675;SDS011;4375;52.486;13.424;2024-03-23T13:34:28;17.67;;;2.87;;
8675;SDS011;4375;52.486;13.424;2024-03-23T13:36:54;17.67;;;2.20;;
8675;SDS011;4375;52.486;13.424;2024-03-23T13:39:23;19.37;;;2.83;;
8675;SDS011;4375;52.486;13.424;2024-03-23T13:41:49;23.40;;;3.10;;
8675;SDS011;4375;52.486;13.424;2024-03-23T13:44:14;14.80;;;2.00;;
8675;SDS011;4375;52.486;13.424;2024-03-23T13:46:41;20.97;;;3.10;;
8675;SDS011;4375;52.486;13.424;2024-03-23T13:49:08;23.60;;;3.07;;
8675;SDS011;4375;52.486;13.424;2024-03-23T13:52:05;16.00;;;2.73;;
8675;SDS011;4375;52.486;13.424;2024-03-23T13:54:32;17.80;;;2.50;;
8675;SDS011;4375;52.486;13.424;2024-03-23T13:56:57;18.80;;;2.63;;
8675;SDS011;4375;52.486;13.424;2024-03-23T13:59:23;21.90;;;3.13;;
8675;SDS011;4375;52.486;13.424;2024-03-23T14:01:49;21.00;;;3.60;;
8675;SDS011;4375;52.486;13.424;2024-03-23T14:04:15;20.17;;;3.90;;
8675;SDS011;4375;52.486;13.424;2024-03-23T14:06:42;17.60;;;3.20;;
8675;SDS011;4375;52.486;13.424;2024-03-23T14:09:11;17.43;;;3.10;;
8675;SDS011;4375;52.486;13.424;2024-03-23T14:11:37;19.83;;;3.27;;
8675;SDS011;4375;52.486;13.424;2024-03-23T14:14:03;21.90;;;3.90;;
8675;SDS011;4375;52.486;13.424;2024-03-23T14:16:29;23.03;;;4.10;;
8675;SDS011;4375;52.486;13.424;2024-03-23T14:18:57;18.30;;;3.50;;
8675;SDS011;4375;52.486;13.424;2024-03-23T14:21:23;25.83;;;3.10;;
8675;SDS011;4375;52.486;13.424;2024-03-23T14:23:48;21.80;;;3.83;;
8675;SDS011;4375;52.486;13.424;2024-03-23T14:26:14;19.67;;;3.20;;
8675;SDS011;4375;52.486;13.424;2024-03-23T14:28:40;18.33;;;2.90;;
8675;SDS011;4375;52.486;13.424;2024-03-23T14:31:06;22.60;;;3.90;;
8675;SDS011;4375;52.486;13.424;2024-03-23T14:33:35;15.53;;;2.97;;
8675;SDS011;4375;52.486;13.424;2024-03-23T14:36:06;19.20;;;3.20;;
8675;SDS011;4375;52.486;13.424;2024-03-23T14:38:35;23.20;;;4.07;;
8675;SDS011;4375;52.486;13.424;2024-03-23T14:41:04;24.03;;;3.40;;
8675;SDS011;4375;52.486;13.424;2024-03-23T14:43:29;19.67;;;2.90;;
8675;SDS011;4375;52.486;13.424;2024-03-23T14:46:11;18.67;;;3.37;;
8675;SDS011;4375;52.486;13.424;2024-03-23T14:48:44;18.33;;;2.67;;
8675;SDS011;4375;52.486;13.424;2024-03-23T14:51:11;15.63;;;2.40;;
8675;SDS011;4375;52.486;13.424;2024-03-23T14:53:38;17.50;;;3.70;;
8675;SDS011;4375;52.486;13.424;2024-03-23T14:56:09;18.00;;;2.73;;
8675;SDS011;4375;52.486;13.424;2024-03-23T14:58:40;16.40;;;2.40;;
8675;SDS011;4375;52.486;13.424;2024-03-23T15:01:06;18.60;;;3.63;;
8675;SDS011;4375;52.486;13.424;2024-03-23T15:03:42;20.67;;;3.27;;
8675;SDS011;4375;52.486;13.424;2024-03-23T15:06:09;19.30;;;3.70;;
8675;SDS011;4375;52.486;13.424;2024-03-23T15:08:53;18.63;;;3.07;;
8675;SDS011;4375;52.486;13.424;2024-03-23T15:11:26;17.00;;;3.30;;
8675;SDS011;4375;52.486;13.424;2024-03-23T15:13:51;18.47;;;3.00;;
8675;SDS011;4375;52.486;13.424;2024-03-23T15:16:17;19.47;;;2.97;;
8675;SDS011;4375;52.486;13.424;2024-03-23T15:18:45;14.67;;;2.00;;
8675;SDS011;4375;52.486;13.424;2024-03-23T15:21:10;16.17;;;2.40;;
8675;SDS011;4375;52.486;13.424;2024-03-23T15:23:37;15.10;;;2.37;;
8675;SDS011;4375;52.486;13.424;2024-03-23T15:26:03;19.07;;;2.33;;
8675;SDS011;4375;52.486;13.424;2024-03-23T15:28:30;14.53;;;2.13;;
8675;SDS011;4375;52.486;13.424;2024-03-23T15:31:28;15.80;;;2.67;;
8675;SDS011;4375;52.486;13.424;2024-03-23T15:33:56;16.63;;;2.40;;
8675;SDS011;4375;52.486;13.424;2024-03-23T15:36:22;16.10;;;2.60;;
8675;SDS011;4375;52.486;13.424;2024-03-23T15:38:47;20.40;;;2.27;;
8675;SDS011;4375;52.486;13.424;2024-03-23T15:41:14;20.17;;;2.30;;
8675;SDS011;4375;52.486;13.424;2024-03-23T15:43:39;19.60;;;2.30;;
8675;SDS011;4375;52.486;13.424;2024-03-23T15:46:06;14.90;;;2.30;;
8675;SDS011;4375;52.486;13.424;2024-03-23T15:48:32;16.50;;;2.00;;
8675;SDS011;4375;52.486;13.424;2024-03-23T15:51:00;19.80;;;3.20;;
8675;SDS011;4375;52.486;13.424;2024-03-23T15:53:27;17.30;;;2.80;;
8675;SDS011;4375;52.486;13.424;2024-03-23T15:55:53;16.83;;;2.20;;
8675;SDS011;4375;52.486;13.424;2024-03-23T15:58:19;15.63;;;2.53;;